This is the latest recevied weather packets stored in our database for station/object DL1EEM-L4. If no packets are shown the sender has not sent any weather packets the latest 10 day(s).
| Time | Temp. | Humidity | Pressure | Rain* | Wind** | Luminosity | Snow |
|---|---|---|---|---|---|---|---|
| 1778073091 | 12.22° C | 64% | 1007.6 hPa | - | - | - | - |
| 1778072191 | 12.22° C | 61% | 1007.6 hPa | - | - | - | - |
| 1778071291 | 12.22° C | 60% | 1007.4 hPa | - | - | - | - |
| 1778070391 | 12.22° C | 60% | 1007.4 hPa | - | - | - | - |
| 1778069491 | 12.22° C | 58% | 1007.3 hPa | - | - | - | - |
| 1778068591 | 12.22° C | 56% | 1007.3 hPa | - | - | - | - |
| 1778067690 | 12.78° C | 56% | 1007.1 hPa | - | - | - | - |
| 1778066790 | 12.22° C | 53% | 1007.1 hPa | - | - | - | - |
| 1778065890 | 12.22° C | 53% | 1007 hPa | - | - | - | - |
| 1778064990 | 12.22° C | 52% | 1007 hPa | - | - | - | - |
| 1778064090 | 12.22° C | 51% | 1007.1 hPa | - | - | - | - |
| 1778063190 | 12.22° C | 53% | 1007 hPa | - | - | - | - |
| 1778062290 | 12.22° C | 53% | 1007 hPa | - | - | - | - |
| 1778061390 | 11.67° C | 52% | 1006.9 hPa | - | - | - | - |
| 1778060492 | 11.67° C | 53% | 1006.9 hPa | - | - | - | - |
| 1778057855 | 11.11° C | 51% | 1006.8 hPa | - | - | - | - |
| 1778055648 | 11.11° C | 52% | 1006.5 hPa | - | - | - | - |
| 1778054748 | 11.11° C | 52% | 1006.4 hPa | - | - | - | - |
| 1778053847 | 10.56° C | 53% | 1006.4 hPa | - | - | - | - |
| 1778048151 | 10.56° C | 58% | 1006.2 hPa | - | - | - | - |
| 1778047252 | 10.56° C | 59% | 1006 hPa | - | - | - | - |
| 1778046352 | 10.56° C | 61% | 1006.2 hPa | - | - | - | - |
| 1778044549 | 10° C | 63% | 1006.2 hPa | - | - | - | - |
| 1778043652 | 9.44° C | 65% | 1006.2 hPa | - | - | - | - |
| 1778000018 | 13.89° C | 61% | 1007.8 hPa | - | - | - | - |
* Rain since midnight (hover to see other rain measurements)
** Current wind speed in m/s (hover to see current wind gust speed)